Holytown, United Kingdom
Current Conditions -  °F | °C
As of 2:20 PM on Thursday 29 Jan 2015 (Local Time) from EGPF Reporting Station
Broken Clouds Broken Clouds  
Wind Chill: 30°   Ceiling: 1400
Heat Index: 37°   Visibility: 6mi
Dew Point: 32°   Wind: 10mph
Humidity: 81%   Direction: 270°W
Pressure: 28.76"   Gusts: NA
Location:  55.82°N, 3.97°W
Report Text: EGPF 291420Z AUTO 27009KT 9999 BKN014 03/M00 Q0974
Loading
Personal Weather Stations






























Interactive Weather Map New forecast layout! Learn more

10-Day Weather Forecast

Advertisements
Track Severe Weather on mobile